createdAt,value
2022-07-30T00:00:31.614Z,98154.97
2022-07-30T00:03:00.119Z,98154.13
2022-07-30T00:05:29.873Z,98154.31
2022-07-30T00:07:58.510Z,98155.38
2022-07-30T00:10:27.799Z,98150.16
2022-07-30T00:12:57.298Z,98143.94
2022-07-30T00:15:25.758Z,98143.09
2022-07-30T00:17:54.608Z,98136.88
2022-07-30T00:20:23.738Z,98141.41
2022-07-30T00:22:58.094Z,98139.78
2022-07-30T00:25:26.634Z,98150.56
2022-07-30T00:27:55.196Z,98152.63
2022-07-30T00:30:23.949Z,98143.50
2022-07-30T00:32:52.644Z,98142.47
2022-07-30T00:35:21.285Z,98133.53
2022-07-30T00:37:49.924Z,98123.75
2022-07-30T00:40:19.835Z,98132.72
2022-07-30T00:42:50.663Z,98130.19
2022-07-30T00:45:19.323Z,98122.94
2022-07-30T00:47:47.955Z,98131.03
2022-07-30T00:50:16.596Z,98123.75
2022-07-30T00:52:45.122Z,98129.38
2022-07-30T00:55:14.871Z,98121.47
2022-07-30T00:57:44.881Z,98110.47
2022-07-30T01:00:16.035Z,98104.44
2022-07-30T01:02:44.667Z,98103.63
2022-07-30T01:05:13.290Z,98098.41
2022-07-30T01:07:41.783Z,98085.56
2022-07-30T01:10:12.419Z,98093.88
2022-07-30T01:12:41.014Z,98088.63
2022-07-30T01:15:12.049Z,98081.38
2022-07-30T01:17:40.718Z,98076.81
2022-07-30T01:20:12.398Z,98070.59
2022-07-30T01:22:58.998Z,98063.50
2022-07-30T01:25:47.328Z,98058.09
2022-07-30T01:28:18.419Z,98058.28
2022-07-30T01:30:47.340Z,98068.06
2022-07-30T01:33:18.921Z,98062.88
2022-07-30T01:35:48.616Z,98060.16
2022-07-30T01:38:17.630Z,98045.63
2022-07-30T01:40:47.668Z,98049.19
2022-07-30T01:43:16.743Z,98042.94
2022-07-30T01:45:45.389Z,98046.50
2022-07-30T01:48:15.041Z,98034.00
2022-07-30T01:50:45.792Z,98041.28
2022-07-30T01:53:16.913Z,98038.56
2022-07-30T01:55:46.955Z,98032.34
2022-07-30T01:58:15.498Z,98041.28
2022-07-30T02:00:44.823Z,98036.94
2022-07-30T02:03:13.566Z,98037.75
2022-07-30T02:05:42.766Z,98049.38
2022-07-30T02:08:15.274Z,98029.84
2022-07-30T02:10:46.750Z,98034.22
2022-07-30T02:13:18.917Z,98029.84
2022-07-30T02:15:51.178Z,98041.47
2022-07-30T02:18:23.755Z,98037.94
2022-07-30T02:20:57.380Z,98045.22
2022-07-30T02:23:25.921Z,98045.22
2022-07-30T02:25:54.437Z,98047.72
2022-07-30T02:28:24.309Z,98045.22
2022-07-30T02:30:54.651Z,98051.66
2022-07-30T02:33:24.868Z,98040.84
2022-07-30T02:35:54.255Z,98043.16
2022-07-30T02:38:25.431Z,98051.44
2022-07-30T02:40:53.963Z,98063.06
2022-07-30T02:43:25.241Z,98056.84
2022-07-30T02:45:54.099Z,98049.38
2022-07-30T02:48:34.512Z,98061.00
2022-07-30T02:51:04.931Z,98057.28
2022-07-30T02:53:33.408Z,98052.91
2022-07-30T02:56:01.857Z,98050.41
2022-07-30T02:58:31.793Z,98044.16
2022-07-30T03:01:00.323Z,98033.38
2022-07-30T03:03:32.039Z,98034.22
2022-07-30T03:06:00.727Z,98037.75
2022-07-30T03:08:29.243Z,98043.97
2022-07-30T03:10:57.824Z,98033.38
2022-07-30T03:13:26.422Z,98028.59
2022-07-30T03:15:56.709Z,98020.72
2022-07-30T03:18:25.247Z,98019.88
2022-07-30T03:20:56.314Z,98012.81
2022-07-30T03:23:24.825Z,98023.63
2022-07-30T03:25:56.055Z,98013.66
2022-07-30T03:28:24.901Z,98005.78
2022-07-30T03:30:53.676Z,98008.25
2022-07-30T03:33:23.661Z,98011.16
2022-07-30T03:36:08.115Z,98011.16
2022-07-30T03:38:38.081Z,98013.03
2022-07-30T03:41:06.909Z,98011.34
2022-07-30T03:43:35.518Z,98006.78
2022-07-30T03:46:04.607Z,98008.47
2022-07-30T03:48:34.933Z,98012.81
2022-07-30T03:51:04.316Z,98025.69
2022-07-30T03:53:33.026Z,98029.44
2022-07-30T03:56:01.614Z,98037.53
2022-07-30T03:58:30.561Z,98050.19
2022-07-30T04:01:04.881Z,98053.53
2022-07-30T04:03:35.120Z,98052.66
2022-07-30T04:06:03.588Z,98038.56
2022-07-30T04:08:32.062Z,98044.56
2022-07-30T04:11:00.765Z,98051.00
2022-07-30T04:13:29.216Z,98046.44
2022-07-30T04:16:38.391Z,98047.28
2022-07-30T04:18:54.776Z,98039.81
2022-07-30T04:21:24.286Z,98042.72
2022-07-30T04:24:03.872Z,98041.47
2022-07-30T04:26:36.536Z,98041.69
2022-07-30T04:29:07.220Z,98048.31
2022-07-30T04:31:40.217Z,98061.22
2022-07-30T04:34:14.341Z,98052.47
2022-07-30T04:36:43.327Z,98053.53
2022-07-30T04:39:12.045Z,98040.84
2022-07-30T04:41:48.362Z,98036.47
2022-07-30T04:44:20.032Z,98038.97
2022-07-30T04:46:48.667Z,98038.16
2022-07-30T04:49:19.146Z,98051.66
2022-07-30T04:51:47.945Z,98055.19
2022-07-30T04:54:16.445Z,98046.25
2022-07-30T04:56:53.144Z,98044.38
2022-07-30T04:59:25.433Z,98051.66
2022-07-30T05:01:54.010Z,98057.06
2022-07-30T05:04:25.097Z,98042.72
2022-07-30T05:06:53.796Z,98053.53
2022-07-30T05:09:22.250Z,98051.41
2022-07-30T05:11:54.216Z,98048.72
2022-07-30T05:14:23.102Z,98041.63
2022-07-30T05:16:51.584Z,98043.50
2022-07-30T05:19:20.179Z,98038.13
2022-07-30T05:21:50.089Z,98039.81
2022-07-30T05:24:18.559Z,98044.34
2022-07-30T05:26:47.052Z,98044.34
2022-07-30T05:29:19.663Z,98047.91
2022-07-30T05:31:49.537Z,98048.72
2022-07-30T05:34:18.230Z,98050.78
2022-07-30T05:36:46.682Z,98043.97
2022-07-30T05:39:17.450Z,98057.06
2022-07-30T05:41:45.892Z,98052.66
2022-07-30T05:44:14.446Z,98059.78
2022-07-30T05:46:42.984Z,98051.25
2022-07-30T05:49:11.576Z,98052.25
2022-07-30T05:51:40.375Z,98048.13
2022-07-30T05:54:09.746Z,98054.34
2022-07-30T05:56:41.036Z,98053.13
2022-07-30T05:59:09.645Z,98053.53
2022-07-30T06:01:38.270Z,98052.66
2022-07-30T06:04:06.914Z,98047.91
2022-07-30T06:06:35.348Z,98039.41
2022-07-30T06:09:04.043Z,98038.56
2022-07-30T06:11:32.527Z,98038.56
2022-07-30T06:14:02.450Z,98041.47
2022-07-30T06:16:31.052Z,98043.16
2022-07-30T06:18:59.506Z,98051.03
2022-07-30T06:21:27.968Z,98050.19
2022-07-30T06:24:16.440Z,98048.53
2022-07-30T06:26:44.928Z,98051.69
2022-07-30T06:29:14.860Z,98056.84
2022-07-30T06:31:43.452Z,98051.25
2022-07-30T06:34:11.981Z,98044.81
2022-07-30T06:36:40.615Z,98044.16
2022-07-30T06:39:09.220Z,98045.06
2022-07-30T06:41:37.753Z,98044.03
2022-07-30T06:44:06.441Z,98037.78
2022-07-30T06:46:36.937Z,98037.13
2022-07-30T06:49:05.810Z,98038.16
2022-07-30T06:51:34.703Z,98035.88
2022-07-30T06:54:03.745Z,98030.84
2022-07-30T06:56:32.322Z,98029.00
2022-07-30T06:59:00.911Z,98028.59
2022-07-30T07:01:29.355Z,98019.88
2022-07-30T07:03:59.350Z,98016.97
2022-07-30T07:06:27.869Z,98008.66
2022-07-30T07:08:56.343Z,98011.16
2022-07-30T07:11:25.550Z,98014.06
2022-07-30T07:13:54.038Z,98008.66
2022-07-30T07:16:25.474Z,98010.53
2022-07-30T07:18:53.956Z,98006.38
2022-07-30T07:21:23.719Z,98002.44
2022-07-30T07:23:52.160Z,98011.03
2022-07-30T07:26:20.590Z,98005.63
2022-07-30T07:28:49.971Z,98001.28
2022-07-30T07:32:07.155Z,97999.81
2022-07-30T07:34:07.020Z,98004.13
2022-07-30T07:36:36.853Z,98008.31
2022-07-30T07:39:09.735Z,98003.34
2022-07-30T07:41:48.792Z,98009.16
2022-07-30T07:44:17.963Z,98011.44
2022-07-30T07:46:46.443Z,98017.25
2022-07-30T07:49:15.080Z,98009.16
2022-07-30T07:51:48.364Z,98025.75
2022-07-30T07:54:24.114Z,98015.53
2022-07-30T07:56:53.438Z,98013.88
2022-07-30T07:59:21.938Z,98012.91
2022-07-30T08:01:51.412Z,98017.63
2022-07-30T08:04:19.949Z,98012.91
2022-07-30T08:06:49.926Z,98018.34
2022-07-30T08:09:18.342Z,98008.78
2022-07-30T08:11:48.022Z,98002.09
2022-07-30T08:14:16.416Z,98002.94
2022-07-30T08:16:44.886Z,97999.44
2022-07-30T08:19:13.362Z,98002.94
2022-07-30T08:21:41.816Z,97996.09
2022-07-30T08:24:11.620Z,97993.81
2022-07-30T08:26:40.170Z,97986.34
2022-07-30T08:29:08.660Z,97991.13
2022-07-30T08:31:37.129Z,97992.97
2022-07-30T08:34:05.789Z,97988.00
2022-07-30T08:36:34.234Z,97996.94
2022-07-30T08:39:02.715Z,97986.34
2022-07-30T08:41:32.611Z,98000.91
2022-07-30T08:46:32.964Z,97979.72
2022-07-30T08:49:09.226Z,97979.94
2022-07-30T08:51:40.239Z,97976.41
2022-07-30T08:54:08.764Z,97972.44
2022-07-30T08:56:38.762Z,97973.69
2022-07-30T08:59:07.293Z,97969.31
2022-07-30T09:01:35.867Z,97976.00
2022-07-30T09:06:34.193Z,97961.84
2022-07-30T09:09:05.493Z,97958.09
2022-07-30T09:11:35.904Z,97964.31
2022-07-30T09:14:11.070Z,97962.06
2022-07-30T09:16:39.926Z,97955.84
2022-07-30T09:19:16.527Z,97968.72
2022-07-30T09:21:56.363Z,97964.13
2022-07-30T09:24:24.935Z,97958.75
2022-07-30T09:26:57.156Z,97966.41
2022-07-30T09:29:28.145Z,97953.34
2022-07-30T09:31:58.124Z,97958.94
2022-07-30T09:34:31.990Z,97958.53
2022-07-30T09:37:02.260Z,97958.94
2022-07-30T09:39:34.900Z,97965.19
2022-07-30T09:42:04.425Z,97958.13
2022-07-30T09:44:34.426Z,97956.25
2022-07-30T09:47:03.203Z,97953.56
2022-07-30T09:49:32.956Z,97951.06
2022-07-30T09:52:01.480Z,97948.13
2022-07-30T09:54:50.966Z,97948.56
2022-07-30T09:57:25.972Z,97940.03
2022-07-30T09:59:59.853Z,97937.16
2022-07-30T10:02:31.924Z,97934.88
2022-07-30T10:05:13.848Z,97933.41
2022-07-30T10:07:51.486Z,97920.72
2022-07-30T10:10:25.267Z,97911.38
2022-07-30T10:12:58.205Z,97915.75
2022-07-30T10:15:32.526Z,97923.22
2022-07-30T10:18:01.699Z,97916.38
2022-07-30T10:20:30.165Z,97919.88
2022-07-30T10:23:07.818Z,97922.81
2022-07-30T10:25:49.656Z,97928.63
2022-07-30T10:28:24.481Z,97918.66
2022-07-30T10:30:55.891Z,97922.59
2022-07-30T10:33:36.688Z,97927.38
2022-07-30T10:36:11.734Z,97935.06
2022-07-30T10:38:41.635Z,97937.78
2022-07-30T10:41:42.225Z,97936.91
2022-07-30T10:44:23.538Z,97932.13
2022-07-30T10:47:01.302Z,97931.53
2022-07-30T10:49:41.401Z,97937.34
2022-07-30T10:52:12.389Z,97934.63
2022-07-30T10:54:43.165Z,97929.66
2022-07-30T10:57:32.456Z,97921.56
2022-07-30T11:00:15.240Z,97924.03
2022-07-30T11:03:41.558Z,97922.41
2022-07-30T11:06:26.963Z,97929.25
2022-07-30T11:08:57.145Z,97920.75
2022-07-30T11:12:15.750Z,97925.09
2022-07-30T11:15:17.413Z,97917.19
2022-07-30T11:18:12.492Z,97915.94
2022-07-30T11:20:48.863Z,97930.69
2022-07-30T11:23:40.635Z,97945.66
2022-07-30T11:26:14.405Z,97940.44
2022-07-30T11:28:44.815Z,97937.16
2022-07-30T11:31:36.918Z,97942.94
2022-07-30T11:34:30.769Z,97950.63
2022-07-30T11:37:31.904Z,97957.28
2022-07-30T11:40:14.578Z,97958.13
2022-07-30T11:42:43.806Z,97956.03
2022-07-30T11:45:29.883Z,97958.13
2022-07-30T11:48:01.202Z,97964.53
2022-07-30T11:50:34.041Z,97966.84
2022-07-30T11:53:06.810Z,97965.97
2022-07-30T11:55:37.477Z,97969.13
2022-07-30T11:58:07.925Z,97968.06
2022-07-30T12:00:39.144Z,97976.16
2022-07-30T12:03:12.763Z,97980.31
2022-07-30T12:05:41.409Z,97976.78
2022-07-30T12:08:35.406Z,97985.94
2022-07-30T12:11:01.754Z,97980.13
2022-07-30T12:13:42.847Z,97968.31
2022-07-30T12:16:16.052Z,97962.78
2022-07-30T12:18:45.185Z,97960.91
2022-07-30T12:21:16.327Z,97959.06
2022-07-30T12:23:55.724Z,97959.75
2022-07-30T12:26:26.750Z,97964.75
2022-07-30T12:28:56.390Z,97962.88
2022-07-30T12:31:24.909Z,97956.84
2022-07-30T12:33:53.491Z,97954.81
2022-07-30T12:36:30.907Z,97958.94
2022-07-30T12:39:01.127Z,97958.31
2022-07-30T12:41:45.529Z,97956.25
2022-07-30T12:44:39.003Z,97953.88
2022-07-30T12:47:20.254Z,97956.53
2022-07-30T12:49:50.085Z,97956.56
2022-07-30T12:52:28.660Z,97948.69
2022-07-30T12:55:09.935Z,97958.41
2022-07-30T12:57:58.297Z,97957.16
2022-07-30T13:00:28.192Z,97960.03
2022-07-30T13:02:56.783Z,97954.25
2022-07-30T13:05:48.510Z,97961.75
2022-07-30T13:08:16.978Z,97955.50
2022-07-30T13:11:00.826Z,97957.56
2022-07-30T13:13:29.357Z,97949.03
2022-07-30T13:16:00.888Z,97955.06
2022-07-30T13:18:30.005Z,97947.78
2022-07-30T13:20:58.708Z,97953.78
2022-07-30T13:23:27.601Z,97945.50
2022-07-30T13:25:56.050Z,97943.03
2022-07-30T13:28:26.036Z,97938.88
2022-07-30T13:30:54.479Z,97940.28
2022-07-30T13:33:22.893Z,97927.84
2022-07-30T13:35:51.313Z,97920.38
2022-07-30T13:38:19.729Z,97917.06
2022-07-30T13:40:48.653Z,97920.19
2022-07-30T13:43:17.247Z,97910.63
2022-07-30T13:45:47.158Z,97908.16
2022-07-30T13:48:15.630Z,97905.63
2022-07-30T13:50:44.791Z,97901.09
2022-07-30T13:53:13.257Z,97902.34
2022-07-30T13:55:42.603Z,97904.59
2022-07-30T13:58:11.158Z,97906.06
2022-07-30T14:00:40.456Z,97894.22
2022-07-30T14:03:11.176Z,97894.84
2022-07-30T14:05:42.257Z,97889.66
2022-07-30T14:08:11.944Z,97890.28
2022-07-30T14:10:40.822Z,97885.72
2022-07-30T14:13:11.781Z,97891.09
2022-07-30T14:15:49.893Z,97886.72
2022-07-30T14:18:19.716Z,97876.16
2022-07-30T14:20:49.463Z,97878.22
2022-07-30T14:23:18.088Z,97883.66
2022-07-30T14:25:46.733Z,97881.38
2022-07-30T14:28:15.243Z,97884.28
2022-07-30T14:30:43.824Z,97877.38
2022-07-30T14:33:12.324Z,97874.47
2022-07-30T14:35:42.366Z,97867.44
2022-07-30T14:38:10.837Z,97867.44
2022-07-30T14:40:39.284Z,97867.44
2022-07-30T14:43:07.704Z,97855.81
2022-07-30T14:45:37.577Z,97863.72
2022-07-30T14:48:06.774Z,97861.66
2022-07-30T14:50:46.698Z,97873.91
2022-07-30T14:53:25.738Z,97873.06
2022-07-30T14:55:54.192Z,97867.28
2022-07-30T14:58:22.656Z,97875.41
2022-07-30T15:00:51.646Z,97868.75
2022-07-30T15:03:20.212Z,97861.06
2022-07-30T15:05:52.427Z,97865.81
2022-07-30T15:08:21.783Z,97873.69
2022-07-30T15:10:51.578Z,97862.69
2022-07-30T15:13:19.983Z,97865.84
2022-07-30T15:15:50.454Z,97863.38
2022-07-30T15:18:18.891Z,97862.94
2022-07-30T15:20:47.366Z,97859.59
2022-07-30T15:23:15.890Z,97855.25
2022-07-30T15:25:45.656Z,97854.63
2022-07-30T15:28:15.561Z,97862.53
2022-07-30T15:30:44.574Z,97863.75
2022-07-30T15:33:13.066Z,97863.75
2022-07-30T15:35:41.514Z,97862.31
2022-07-30T15:38:10.045Z,97864.81
2022-07-30T15:40:38.476Z,97863.16
2022-07-30T15:43:10.083Z,97864.19
2022-07-30T15:45:50.059Z,97853.81
2022-07-30T15:48:27.368Z,97859.84
2022-07-30T15:51:01.651Z,97859.84
2022-07-30T15:53:31.262Z,97862.72
2022-07-30T15:55:59.707Z,97864.16
2022-07-30T15:58:28.271Z,97855.22
2022-07-30T16:00:58.182Z,97856.25
2022-07-30T16:03:26.796Z,97851.28
2022-07-30T16:05:55.254Z,97855.25
2022-07-30T16:08:23.997Z,97855.44
2022-07-30T16:10:53.021Z,97847.34
2022-07-30T16:13:21.486Z,97854.56
2022-07-30T16:15:50.002Z,97859.97
2022-07-30T16:18:19.753Z,97864.97
2022-07-30T16:20:48.379Z,97863.69
2022-07-30T16:23:21.126Z,97861.63
2022-07-30T16:25:50.295Z,97860.34
2022-07-30T16:28:26.520Z,97851.63
2022-07-30T16:30:55.243Z,97851.03
2022-07-30T16:33:25.266Z,97859.00
2022-07-30T16:35:53.873Z,97857.97
2022-07-30T16:38:23.377Z,97855.97
2022-07-30T16:40:52.037Z,97852.84
2022-07-30T16:43:20.698Z,97855.19
2022-07-30T16:45:49.241Z,97862.63
2022-07-30T16:48:17.805Z,97860.38
2022-07-30T16:50:47.668Z,97870.34
2022-07-30T16:53:16.367Z,97859.75
2022-07-30T16:55:46.588Z,97869.50
2022-07-30T16:58:15.086Z,97870.69
2022-07-30T17:00:43.828Z,97866.38
2022-07-30T17:03:20.159Z,97864.53
2022-07-30T17:05:50.314Z,97871.59
2022-07-30T17:08:19.177Z,97874.00
2022-07-30T17:10:53.755Z,97868.22
2022-07-30T17:13:22.444Z,97872.19
2022-07-30T17:15:51.104Z,97877.75
2022-07-30T17:18:21.797Z,97879.31
2022-07-30T17:20:51.695Z,97877.56
2022-07-30T17:23:20.149Z,97882.75
2022-07-30T17:25:49.165Z,97882.56
2022-07-30T17:28:19.574Z,97875.25
2022-07-30T17:30:54.480Z,97878.50
2022-07-30T17:33:22.996Z,97875.63
2022-07-30T17:35:52.924Z,97876.03
2022-07-30T17:38:21.479Z,97880.38
2022-07-30T17:40:50.021Z,97880.38
2022-07-30T17:43:18.674Z,97872.69
2022-07-30T17:45:47.208Z,97875.59
2022-07-30T17:48:15.849Z,97864.09
2022-07-30T17:50:44.321Z,97872.81
2022-07-30T17:53:16.057Z,97866.19
2022-07-30T17:55:57.424Z,97867.00
2022-07-30T17:58:27.017Z,97860.13
2022-07-30T18:00:55.916Z,97857.25
2022-07-30T18:03:24.446Z,97858.09
2022-07-30T18:05:53.421Z,97857.00
2022-07-30T18:08:23.220Z,97845.00
2022-07-30T18:10:51.905Z,97856.63
2022-07-30T18:13:25.876Z,97854.16
2022-07-30T18:15:55.752Z,97851.88
2022-07-30T18:18:24.534Z,97859.38
2022-07-30T18:20:53.019Z,97854.81
2022-07-30T18:23:22.879Z,97850.84
2022-07-30T18:25:54.341Z,97851.28
2022-07-30T18:28:23.116Z,97854.59
2022-07-30T18:30:51.649Z,97850.88
2022-07-30T18:33:20.098Z,97856.03
2022-07-30T18:35:49.254Z,97858.31
2022-07-30T18:38:17.768Z,97859.19
2022-07-30T18:40:57.719Z,97867.28
2022-07-30T18:43:26.848Z,97858.31
2022-07-30T18:45:55.411Z,97862.06
2022-07-30T18:48:23.862Z,97860.41
2022-07-30T18:50:52.962Z,97862.06
2022-07-30T18:53:21.471Z,97858.53
2022-07-30T18:55:51.914Z,97857.94
2022-07-30T18:58:20.390Z,97850.69
2022-07-30T19:00:48.897Z,97857.94
2022-07-30T19:03:22.672Z,97856.06
2022-07-30T19:05:51.670Z,97860.41
2022-07-30T19:08:20.164Z,97865.63
2022-07-30T19:10:48.763Z,97862.94
2022-07-30T19:13:18.578Z,97870.78
2022-07-30T19:15:47.028Z,97858.13
2022-07-30T19:18:15.448Z,97855.44
2022-07-30T19:20:44.521Z,97852.53
2022-07-30T19:23:13.776Z,97857.94
2022-07-30T19:25:42.296Z,97853.38
2022-07-30T19:28:13.503Z,97866.03
2022-07-30T19:30:43.483Z,97857.13
2022-07-30T19:33:15.494Z,97850.91
2022-07-30T19:35:44.332Z,97849.22
2022-07-30T19:38:21.995Z,97848.38
2022-07-30T19:41:01.240Z,97853.78
2022-07-30T19:43:33.559Z,97851.09
2022-07-30T19:46:03.673Z,97847.34
2022-07-30T19:48:32.510Z,97849.03
2022-07-30T19:51:01.384Z,97859.59
2022-07-30T19:53:31.605Z,97848.41
2022-07-30T19:56:08.227Z,97846.31
2022-07-30T19:58:40.046Z,97846.09
2022-07-30T20:01:12.326Z,97846.53
2022-07-30T20:03:41.087Z,97843.00
2022-07-30T20:06:14.458Z,97835.91
2022-07-30T20:08:44.758Z,97840.50
2022-07-30T20:11:20.764Z,97847.53
2022-07-30T20:14:02.116Z,97832.41
2022-07-30T20:16:31.948Z,97840.50
2022-07-30T20:19:00.400Z,97832.59
2022-07-30T20:21:56.101Z,97831.16
2022-07-30T20:24:20.106Z,97827.19
2022-07-30T20:26:49.481Z,97841.94
2022-07-30T20:29:19.376Z,97836.56
2022-07-30T20:31:50.491Z,97839.25
2022-07-30T20:34:23.325Z,97833.84
2022-07-30T20:36:52.095Z,97832.00
2022-07-30T20:39:23.679Z,97826.78
2022-07-30T20:42:07.620Z,97826.78
2022-07-30T20:44:37.548Z,97825.13
2022-07-30T20:47:08.115Z,97823.06
2022-07-30T20:49:37.243Z,97817.44
2022-07-30T20:52:06.970Z,97819.31
2022-07-30T20:54:35.613Z,97817.69
2022-07-30T20:57:06.434Z,97814.13
2022-07-30T20:59:35.643Z,97818.69
2022-07-30T21:02:04.577Z,97814.13
2022-07-30T21:04:36.220Z,97813.31
2022-07-30T21:07:05.192Z,97810.59
2022-07-30T21:09:52.250Z,97805.22
2022-07-30T21:12:33.005Z,97797.34
2022-07-30T21:15:01.708Z,97805.63
2022-07-30T21:17:30.152Z,97803.97
2022-07-30T21:20:00.125Z,97804.78
2022-07-30T21:22:29.630Z,97805.63
2022-07-30T21:24:58.304Z,97810.19
2022-07-30T21:27:30.056Z,97811.84
2022-07-30T21:29:58.624Z,97800.22
2022-07-30T21:32:28.434Z,97801.88
2022-07-30T21:34:56.882Z,97800.88
2022-07-30T21:37:27.114Z,97799.00
2022-07-30T21:40:06.957Z,97802.72
2022-07-30T21:42:37.306Z,97798.16
2022-07-30T21:45:17.322Z,97796.47
2022-07-30T21:47:47.605Z,97794.00
2022-07-30T21:50:16.692Z,97808.13
2022-07-30T21:52:46.651Z,97791.09
2022-07-30T21:55:15.211Z,97791.94
2022-07-30T21:57:43.715Z,97800.22
2022-07-30T22:00:18.807Z,97795.88
2022-07-30T22:02:53.124Z,97800.41
2022-07-30T22:05:38.297Z,97784.47
2022-07-30T22:08:09.574Z,97787.16
2022-07-30T22:10:39.159Z,97788.19
2022-07-30T22:13:10.295Z,97789.84
2022-07-30T22:15:39.030Z,97793.56
2022-07-30T22:18:08.689Z,97790.69
2022-07-30T22:20:37.883Z,97781.53
2022-07-30T22:23:09.203Z,97775.31
2022-07-30T22:25:39.619Z,97786.34
2022-07-30T22:28:12.738Z,97774.50
2022-07-30T22:30:42.006Z,97772.63
2022-07-30T22:33:13.214Z,97769.09
2022-07-30T22:35:46.672Z,97767.22
2022-07-30T22:38:19.874Z,97769.31
2022-07-30T22:40:49.541Z,97769.94
2022-07-30T22:43:18.025Z,97762.88
2022-07-30T22:45:48.377Z,97759.56
2022-07-30T22:48:20.742Z,97763.91
2022-07-30T22:50:56.805Z,97750.41
2022-07-30T22:54:10.824Z,97749.59
2022-07-30T22:56:20.256Z,97754.78
2022-07-30T22:58:53.107Z,97757.50
2022-07-30T23:01:21.576Z,97752.09
2022-07-30T23:03:51.431Z,97738.81
2022-07-30T23:06:20.658Z,97741.72
2022-07-30T23:08:51.424Z,97733.41
2022-07-30T23:11:21.580Z,97730.53
2022-07-30T23:13:53.844Z,97729.91
2022-07-30T23:16:22.764Z,97719.09
2022-07-30T23:18:51.300Z,97723.03
2022-07-30T23:21:19.763Z,97729.25
2022-07-30T23:23:48.349Z,97718.47
2022-07-30T23:26:18.195Z,97718.28
2022-07-30T23:28:47.346Z,97720.97
2022-07-30T23:31:15.801Z,97719.09
2022-07-30T23:33:44.258Z,97712.06
2022-07-30T23:36:12.650Z,97707.69
2022-07-30T23:38:41.085Z,97715.78
2022-07-30T23:41:09.503Z,97701.69
2022-07-30T23:43:39.836Z,97697.94
2022-07-30T23:46:11.012Z,97696.31
2022-07-30T23:48:40.139Z,97700.66
2022-07-30T23:51:08.553Z,97705.22
2022-07-30T23:53:36.983Z,97701.69
2022-07-30T23:56:05.925Z,97699.00
2022-07-30T23:58:34.366Z,97694.44
